createdAt,value
2022-11-24T00:00:53.148Z,58.66
2022-11-24T00:01:53.194Z,59.94
2022-11-24T00:02:53.225Z,56.75
2022-11-24T00:03:53.140Z,54.53
2022-11-24T00:04:53.139Z,56.80
2022-11-24T00:05:53.125Z,57.78
2022-11-24T00:06:53.149Z,59.87
2022-11-24T00:07:53.157Z,57.38
2022-11-24T00:08:53.115Z,60.60
2022-11-24T00:09:53.101Z,56.18
2022-11-24T00:10:53.100Z,53.60
2022-11-24T00:11:53.087Z,55.65
2022-11-24T00:12:53.079Z,53.42
2022-11-24T00:13:53.069Z,54.85
2022-11-24T00:14:53.068Z,56.65
2022-11-24T00:15:53.053Z,55.30
2022-11-24T00:16:53.094Z,53.42
2022-11-24T00:17:53.040Z,52.09
2022-11-24T00:18:53.036Z,58.55
2022-11-24T00:19:53.016Z,52.29
2022-11-24T00:20:53.027Z,48.15
2022-11-24T00:21:53.044Z,50.22
2022-11-24T00:22:53.026Z,53.91
2022-11-24T00:23:52.993Z,48.67
2022-11-24T00:24:53.985Z,54.78
2022-11-24T00:25:53.994Z,54.74
2022-11-24T00:26:52.980Z,54.55
2022-11-24T00:27:53.000Z,57.14
2022-11-24T00:28:52.972Z,54.17
2022-11-24T00:29:52.959Z,52.02
2022-11-24T00:30:53.002Z,48.20
2022-11-24T00:31:52.959Z,55.55
2022-11-24T00:32:52.948Z,53.58
2022-11-24T00:33:52.940Z,55.48
2022-11-24T00:34:52.940Z,55.25
2022-11-24T00:35:52.932Z,53.60
2022-11-24T00:36:52.907Z,55.08
2022-11-24T00:37:52.907Z,49.86
2022-11-24T00:38:52.899Z,54.75
2022-11-24T00:39:53.056Z,56.46
2022-11-24T00:40:52.887Z,58.34
2022-11-24T00:41:52.864Z,52.66
2022-11-24T00:42:52.872Z,51.77
2022-11-24T00:43:52.863Z,54.26
2022-11-24T00:44:52.862Z,53.56
2022-11-24T00:45:53.012Z,55.63
2022-11-24T00:46:53.013Z,49.13
2022-11-24T00:47:52.832Z,47.00
2022-11-24T00:48:52.823Z,47.69
2022-11-24T00:49:52.839Z,49.46
2022-11-24T00:50:52.824Z,51.11
2022-11-24T00:51:52.804Z,53.37
2022-11-24T00:52:52.805Z,51.88
2022-11-24T00:53:52.796Z,51.74
2022-11-24T00:54:52.800Z,52.99
2022-11-24T00:55:52.784Z,54.23
2022-11-24T00:56:52.767Z,52.18
2022-11-24T00:57:52.769Z,47.97
2022-11-24T00:58:52.771Z,46.14
2022-11-24T00:59:52.750Z,46.55
2022-11-24T01:00:52.761Z,48.73
2022-11-24T01:01:52.782Z,48.71
2022-11-24T01:02:52.833Z,52.31
2022-11-24T01:03:52.716Z,51.97
2022-11-24T01:04:52.719Z,54.76
2022-11-24T01:05:52.732Z,53.14
2022-11-24T01:06:52.692Z,55.74
2022-11-24T01:07:52.719Z,53.07
2022-11-24T01:08:52.703Z,51.24
2022-11-24T01:09:52.683Z,49.63
2022-11-24T01:10:52.676Z,52.45
2022-11-24T01:11:52.688Z,54.51
2022-11-24T01:12:52.680Z,50.72
2022-11-24T01:13:52.663Z,49.45
2022-11-24T01:14:52.648Z,46.25
2022-11-24T01:15:52.687Z,48.36
2022-11-24T01:16:52.647Z,47.34
2022-11-24T01:17:52.632Z,46.79
2022-11-24T01:18:52.627Z,51.50
2022-11-24T01:19:52.623Z,47.87
2022-11-24T01:20:52.606Z,54.11
2022-11-24T01:21:52.603Z,54.94
2022-11-24T01:22:52.613Z,53.95
2022-11-24T01:23:52.586Z,55.57
2022-11-24T01:24:52.580Z,54.12
2022-11-24T01:25:52.575Z,55.30
2022-11-24T01:26:52.571Z,55.08
2022-11-24T01:27:52.591Z,54.95
2022-11-24T01:28:52.564Z,51.58
2022-11-24T01:29:52.568Z,51.90
2022-11-24T01:30:52.584Z,51.16
2022-11-24T01:31:52.542Z,50.89
2022-11-24T01:32:52.535Z,53.19
2022-11-24T01:33:52.552Z,50.18
2022-11-24T01:34:52.539Z,52.09
2022-11-24T01:35:52.519Z,54.42
2022-11-24T01:36:52.512Z,53.94
2022-11-24T01:37:52.507Z,52.57
2022-11-24T01:38:52.492Z,50.75
2022-11-24T01:39:52.495Z,54.95
2022-11-24T01:40:52.481Z,51.22
2022-11-24T01:41:52.464Z,51.83
2022-11-24T01:42:53.474Z,54.29
2022-11-24T01:43:52.478Z,50.89
2022-11-24T01:44:52.456Z,51.38
2022-11-24T01:45:52.476Z,55.50
2022-11-24T01:46:52.464Z,48.92
2022-11-24T01:47:52.436Z,52.09
2022-11-24T01:48:52.433Z,51.19
2022-11-24T01:49:52.424Z,50.84
2022-11-24T01:50:52.411Z,55.94
2022-11-24T01:51:52.411Z,52.68
2022-11-24T01:52:52.407Z,54.91
2022-11-24T01:53:52.408Z,54.09
2022-11-24T01:54:52.385Z,51.60
2022-11-24T01:55:52.376Z,52.47
2022-11-24T01:56:52.388Z,54.44
2022-11-24T01:57:52.367Z,49.25
2022-11-24T01:58:52.388Z,51.72
2022-11-24T01:59:52.351Z,53.20
2022-11-24T02:00:52.992Z,54.92
2022-11-24T02:01:52.366Z,54.91
2022-11-24T02:02:52.397Z,51.49
2022-11-24T02:03:52.322Z,52.96
2022-11-24T02:04:52.331Z,53.83
2022-11-24T02:05:52.311Z,51.35
2022-11-24T02:06:52.308Z,48.52
2022-11-24T02:07:52.346Z,48.78
2022-11-24T02:08:52.299Z,48.88
2022-11-24T02:09:52.279Z,49.51
2022-11-24T02:10:52.296Z,50.43
2022-11-24T02:11:52.275Z,57.47
2022-11-24T02:12:52.271Z,51.32
2022-11-24T02:13:52.254Z,54.80
2022-11-24T02:14:52.248Z,50.42
2022-11-24T02:15:52.262Z,51.04
2022-11-24T02:16:52.234Z,52.64
2022-11-24T02:17:52.251Z,54.08
2022-11-24T02:18:52.227Z,48.32
2022-11-24T02:19:52.221Z,52.23
2022-11-24T02:20:52.214Z,54.99
2022-11-24T02:21:52.210Z,56.25
2022-11-24T02:22:52.217Z,54.30
2022-11-24T02:23:52.195Z,52.51
2022-11-24T02:24:52.188Z,49.84
2022-11-24T02:25:52.180Z,55.07
2022-11-24T02:26:52.169Z,52.93
2022-11-24T02:27:54.087Z,55.21
2022-11-24T02:28:53.171Z,55.37
2022-11-24T02:29:52.161Z,53.08
2022-11-24T02:30:52.282Z,48.80
2022-11-24T02:31:52.144Z,54.90
2022-11-24T02:32:52.137Z,53.62
2022-11-24T02:33:52.153Z,54.80
2022-11-24T02:34:52.110Z,49.42
2022-11-24T02:35:52.119Z,55.95
2022-11-24T02:36:52.110Z,54.44
2022-11-24T02:37:52.102Z,54.23
2022-11-24T02:38:52.154Z,55.53
2022-11-24T02:39:52.086Z,56.07
2022-11-24T02:40:52.093Z,53.25
2022-11-24T02:41:52.081Z,54.50
2022-11-24T02:42:52.070Z,53.76
2022-11-24T02:43:52.058Z,55.20
2022-11-24T02:44:52.110Z,57.26
2022-11-24T02:45:52.108Z,51.13
2022-11-24T02:46:52.038Z,51.46
2022-11-24T02:47:52.041Z,51.69
2022-11-24T02:48:52.023Z,54.75
2022-11-24T02:49:52.026Z,50.71
2022-11-24T02:50:52.023Z,57.24
2022-11-24T02:51:52.010Z,54.21
2022-11-24T02:52:52.011Z,49.98
2022-11-24T02:53:51.993Z,53.18
2022-11-24T02:54:51.979Z,56.98
2022-11-24T02:55:52.042Z,53.39
2022-11-24T02:56:51.971Z,53.81
2022-11-24T02:57:51.989Z,48.04
2022-11-24T02:58:51.964Z,52.27
2022-11-24T02:59:51.948Z,51.59
2022-11-24T03:00:51.948Z,49.09
2022-11-24T03:01:51.991Z,49.29
2022-11-24T03:02:51.968Z,57.42
2022-11-24T03:03:51.926Z,53.82
2022-11-24T03:04:51.923Z,55.80
2022-11-24T03:05:51.910Z,51.20
2022-11-24T03:06:51.915Z,52.42
2022-11-24T03:07:51.930Z,54.14
2022-11-24T03:08:51.915Z,50.27
2022-11-24T03:09:51.887Z,50.98
2022-11-24T03:10:51.882Z,53.15
2022-11-24T03:11:51.863Z,49.12
2022-11-24T03:12:51.871Z,55.04
2022-11-24T03:13:51.874Z,56.01
2022-11-24T03:14:51.846Z,51.34
2022-11-24T03:15:51.928Z,50.65
2022-11-24T03:16:51.839Z,52.37
2022-11-24T03:17:51.829Z,53.26
2022-11-24T03:18:51.831Z,49.45
2022-11-24T03:19:51.839Z,52.78
2022-11-24T03:20:51.819Z,58.86
2022-11-24T03:21:51.816Z,56.96
2022-11-24T03:22:51.803Z,56.20
2022-11-24T03:23:51.795Z,57.60
2022-11-24T03:24:51.793Z,56.94
2022-11-24T03:25:51.786Z,56.12
2022-11-24T03:26:51.789Z,57.27
2022-11-24T03:27:51.757Z,51.74
2022-11-24T03:28:51.768Z,53.06
2022-11-24T03:29:51.764Z,53.40
2022-11-24T03:30:51.799Z,52.94
2022-11-24T03:31:51.748Z,53.29
2022-11-24T03:32:51.742Z,56.96
2022-11-24T03:33:51.720Z,56.13
2022-11-24T03:34:51.711Z,52.70
2022-11-24T03:35:51.718Z,55.63
2022-11-24T03:36:51.708Z,58.27
2022-11-24T03:37:51.723Z,55.26
2022-11-24T03:38:51.696Z,52.84
2022-11-24T03:39:51.684Z,53.27
2022-11-24T03:40:51.679Z,57.64
2022-11-24T03:41:51.681Z,56.70
2022-11-24T03:42:51.694Z,55.86
2022-11-24T03:43:51.657Z,58.30
2022-11-24T03:44:51.659Z,57.34
2022-11-24T03:45:51.651Z,55.16
2022-11-24T03:46:51.643Z,55.89
2022-11-24T03:47:51.640Z,59.50
2022-11-24T03:48:51.648Z,57.20
2022-11-24T03:49:51.620Z,56.89
2022-11-24T03:50:51.647Z,55.88
2022-11-24T03:51:51.615Z,55.44
2022-11-24T03:52:51.600Z,58.41
2022-11-24T03:53:51.606Z,57.40
2022-11-24T03:54:51.591Z,58.65
2022-11-24T03:55:51.608Z,58.06
2022-11-24T03:56:51.571Z,56.15
2022-11-24T03:57:51.570Z,58.12
2022-11-24T03:58:51.604Z,61.40
2022-11-24T03:59:51.561Z,59.10
2022-11-24T04:00:51.556Z,58.88
2022-11-24T04:01:51.593Z,58.60
2022-11-24T04:02:51.602Z,59.44
2022-11-24T04:03:51.532Z,58.56
2022-11-24T04:04:51.516Z,57.85
2022-11-24T04:05:51.511Z,58.95
2022-11-24T04:06:51.534Z,59.44
2022-11-24T04:07:51.536Z,59.37
2022-11-24T04:08:51.493Z,58.34
2022-11-24T04:09:51.500Z,58.35
2022-11-24T04:10:51.494Z,58.35
2022-11-24T04:11:51.476Z,60.15
2022-11-24T04:12:51.482Z,60.00
2022-11-24T04:13:51.480Z,59.33
2022-11-24T04:14:51.440Z,59.44
2022-11-24T04:15:51.481Z,59.29
2022-11-24T04:16:51.440Z,61.27
2022-11-24T04:17:51.424Z,60.59
2022-11-24T04:18:51.448Z,60.01
2022-11-24T04:19:51.419Z,61.51
2022-11-24T04:20:51.410Z,60.26
2022-11-24T04:21:51.422Z,61.00
2022-11-24T04:22:51.507Z,60.98
2022-11-24T04:23:51.394Z,61.93
2022-11-24T04:24:51.408Z,61.28
2022-11-24T04:25:51.396Z,61.85
2022-11-24T04:26:51.375Z,61.03
2022-11-24T04:27:51.368Z,58.67
2022-11-24T04:28:51.368Z,60.97
2022-11-24T04:29:51.360Z,60.05
2022-11-24T04:30:51.391Z,60.69
2022-11-24T04:31:51.394Z,60.73
2022-11-24T04:32:51.336Z,61.00
2022-11-24T04:33:51.332Z,61.93
2022-11-24T04:34:51.341Z,61.23
2022-11-24T04:35:51.328Z,62.20
2022-11-24T04:36:51.311Z,62.07
2022-11-24T04:37:51.307Z,62.69
2022-11-24T04:39:19.698Z,60.63
2022-11-24T04:39:52.307Z,63.47
2022-11-24T04:40:51.287Z,61.28
2022-11-24T04:41:51.273Z,62.43
2022-11-24T04:42:51.276Z,61.69
2022-11-24T04:43:51.267Z,61.13
2022-11-24T04:44:51.255Z,62.27
2022-11-24T04:45:51.256Z,61.96
2022-11-24T04:46:51.423Z,61.86
2022-11-24T04:47:51.234Z,62.36
2022-11-24T04:48:51.221Z,61.29
2022-11-24T04:49:51.230Z,62.08
2022-11-24T04:50:51.220Z,62.50
2022-11-24T04:51:51.195Z,61.93
2022-11-24T04:52:51.203Z,62.02
2022-11-24T04:53:51.200Z,61.82
2022-11-24T04:54:51.192Z,61.76
2022-11-24T04:55:51.202Z,61.48
2022-11-24T04:56:51.177Z,60.06
2022-11-24T04:57:51.159Z,62.12
2022-11-24T04:58:51.163Z,62.79
2022-11-24T04:59:51.163Z,62.09
2022-11-24T05:00:51.163Z,62.08
2022-11-24T05:01:51.255Z,61.28
2022-11-24T05:02:51.139Z,63.29
2022-11-24T05:03:51.177Z,61.72
2022-11-24T05:04:51.119Z,60.96
2022-11-24T05:05:51.124Z,61.74
2022-11-24T05:06:51.132Z,62.84
2022-11-24T05:07:51.128Z,62.33
2022-11-24T05:08:51.099Z,61.62
2022-11-24T05:09:59.343Z,63.85
2022-11-24T05:10:53.086Z,62.56
2022-11-24T05:11:51.079Z,62.27
2022-11-24T05:12:51.458Z,60.65
2022-11-24T05:13:52.056Z,62.07
2022-11-24T05:14:51.062Z,61.46
2022-11-24T05:15:51.099Z,61.86
2022-11-24T05:16:51.027Z,62.02
2022-11-24T05:17:51.043Z,62.35
2022-11-24T05:18:51.040Z,62.73
2022-11-24T05:19:51.030Z,62.15
2022-11-24T05:20:51.011Z,62.15
2022-11-24T05:21:51.011Z,60.90
2022-11-24T05:22:51.008Z,61.77
2022-11-24T05:23:50.992Z,62.93
2022-11-24T05:24:51.005Z,62.64
2022-11-24T05:25:50.982Z,60.81
2022-11-24T05:26:50.977Z,61.72
2022-11-24T05:27:50.971Z,62.62
2022-11-24T05:28:50.954Z,62.36
2022-11-24T05:29:50.955Z,61.74
2022-11-24T05:30:50.947Z,63.03
2022-11-24T05:31:50.968Z,61.97
2022-11-24T05:32:50.929Z,62.22
2022-11-24T05:33:50.928Z,63.07
2022-11-24T05:34:50.952Z,62.38
2022-11-24T05:35:50.912Z,61.73
2022-11-24T05:36:50.908Z,63.03
2022-11-24T05:37:50.903Z,62.47
2022-11-24T05:38:50.891Z,63.15
2022-11-24T05:39:50.895Z,62.57
2022-11-24T05:40:50.875Z,62.18
2022-11-24T05:41:50.887Z,64.50
2022-11-24T05:42:50.868Z,64.94
2022-11-24T05:43:50.846Z,63.16
2022-11-24T05:44:50.852Z,62.14
2022-11-24T05:45:50.843Z,62.61
2022-11-24T05:46:50.892Z,63.03
2022-11-24T05:47:50.849Z,62.10
2022-11-24T05:48:50.819Z,62.54
2022-11-24T05:49:50.824Z,63.15
2022-11-24T05:50:50.807Z,62.79
2022-11-24T05:51:50.831Z,62.58
2022-11-24T05:52:50.799Z,62.61
2022-11-24T05:53:50.796Z,61.91
2022-11-24T05:54:50.796Z,60.98
2022-11-24T05:55:50.783Z,61.07
2022-11-24T05:56:50.773Z,60.45
2022-11-24T05:57:50.780Z,61.88
2022-11-24T05:58:50.761Z,61.90
2022-11-24T05:59:50.751Z,62.23
2022-11-24T06:00:50.773Z,63.39
2022-11-24T06:01:50.851Z,64.58
2022-11-24T06:02:50.885Z,64.58
2022-11-24T06:03:50.726Z,64.55
2022-11-24T06:04:50.718Z,65.46
2022-11-24T06:05:50.710Z,63.43
2022-11-24T06:06:50.708Z,62.98
2022-11-24T06:07:50.757Z,63.52
2022-11-24T06:08:50.682Z,63.31
2022-11-24T06:09:50.678Z,63.11
2022-11-24T06:10:50.671Z,61.29
2022-11-24T06:11:50.669Z,62.32
2022-11-24T06:12:50.759Z,62.86
2022-11-24T06:13:50.710Z,62.87
2022-11-24T06:14:50.648Z,62.86
2022-11-24T06:15:50.641Z,63.03
2022-11-24T06:16:50.677Z,62.18
2022-11-24T06:17:50.640Z,63.96
2022-11-24T06:18:50.629Z,63.51
2022-11-24T06:19:50.623Z,64.32
2022-11-24T06:21:09.801Z,64.21
2022-11-24T06:21:52.603Z,63.54
2022-11-24T06:22:50.594Z,64.07
2022-11-24T06:23:50.603Z,64.89
2022-11-24T06:24:50.581Z,66.17
2022-11-24T06:25:51.680Z,66.27
2022-11-24T06:26:51.571Z,66.14
2022-11-24T06:27:50.575Z,65.02
2022-11-24T06:28:50.554Z,63.94
2022-11-24T06:29:50.548Z,64.22
2022-11-24T06:30:50.588Z,63.05
2022-11-24T06:31:50.596Z,64.74
2022-11-24T06:32:50.530Z,63.66
2022-11-24T06:33:50.533Z,64.19
2022-11-24T06:34:50.525Z,65.57
2022-11-24T06:35:50.534Z,63.87
2022-11-24T06:36:50.507Z,65.24
2022-11-24T06:37:50.502Z,64.69
2022-11-24T06:38:50.507Z,64.31
2022-11-24T06:39:50.490Z,66.10
2022-11-24T06:40:50.518Z,63.42
2022-11-24T06:41:50.477Z,64.55
2022-11-24T06:42:50.472Z,64.61
2022-11-24T06:43:50.468Z,65.65
2022-11-24T06:44:50.465Z,64.10
2022-11-24T06:45:50.525Z,64.21
2022-11-24T06:46:50.462Z,65.04
2022-11-24T06:47:50.434Z,63.53
2022-11-24T06:48:50.442Z,63.38
2022-11-24T06:49:50.431Z,63.01
2022-11-24T06:50:50.431Z,64.08
2022-11-24T06:51:50.411Z,62.72
2022-11-24T06:52:50.397Z,61.89
2022-11-24T06:53:50.403Z,63.21
2022-11-24T06:54:50.401Z,62.39
2022-11-24T06:55:50.381Z,63.23
2022-11-24T06:56:50.378Z,63.64
2022-11-24T06:57:50.378Z,63.30
2022-11-24T06:58:50.383Z,63.49
2022-11-24T06:59:50.355Z,63.37
2022-11-24T07:00:50.378Z,61.52
2022-11-24T07:01:50.347Z,61.26
2022-11-24T07:02:50.392Z,61.73
2022-11-24T07:03:50.365Z,62.89
2022-11-24T07:04:50.327Z,62.31
2022-11-24T07:05:50.314Z,61.92
2022-11-24T07:06:50.307Z,63.17
2022-11-24T07:07:51.058Z,63.17
2022-11-24T07:08:50.298Z,62.20
2022-11-24T07:09:50.307Z,62.07
2022-11-24T07:10:50.288Z,63.12
2022-11-24T07:11:50.285Z,65.18
2022-11-24T07:12:50.270Z,62.81
2022-11-24T07:13:53.850Z,63.54
2022-11-24T07:14:50.273Z,62.75
2022-11-24T07:15:50.255Z,64.27
2022-11-24T07:16:50.303Z,63.45
2022-11-24T07:17:50.238Z,63.85
2022-11-24T07:18:50.222Z,63.79
2022-11-24T07:19:50.231Z,63.49
2022-11-24T07:20:50.246Z,64.02
2022-11-24T07:21:50.216Z,62.89
2022-11-24T07:22:50.200Z,63.19
2022-11-24T07:23:50.189Z,63.19
2022-11-24T07:24:50.191Z,62.87
2022-11-24T07:25:50.199Z,65.12
2022-11-24T07:26:50.184Z,64.90
2022-11-24T07:27:50.175Z,64.15
2022-11-24T07:28:50.162Z,62.93
2022-11-24T07:29:50.155Z,63.26
2022-11-24T07:30:50.179Z,63.15
2022-11-24T07:31:50.273Z,64.01
2022-11-24T07:32:50.142Z,63.09
2022-11-24T07:33:50.134Z,61.34
2022-11-24T07:34:50.119Z,62.56
2022-11-24T07:35:50.130Z,63.38
2022-11-24T07:36:50.120Z,64.14
2022-11-24T07:37:50.904Z,64.97
2022-11-24T07:38:50.115Z,63.61
2022-11-24T07:39:50.094Z,64.22
2022-11-24T07:40:50.091Z,63.90
2022-11-24T07:41:50.075Z,62.86
2022-11-24T07:42:50.075Z,62.28
2022-11-24T07:43:50.092Z,63.08
2022-11-24T07:44:50.055Z,62.00
2022-11-24T07:45:50.101Z,61.98
2022-11-24T07:46:50.056Z,62.81
2022-11-24T07:47:50.029Z,63.15
2022-11-24T07:48:50.031Z,63.00
2022-11-24T07:49:50.046Z,62.93
2022-11-24T07:50:55.449Z,62.87
2022-11-24T07:51:52.017Z,63.82
2022-11-24T07:52:50.018Z,62.87
2022-11-24T07:53:50.018Z,62.61
2022-11-24T07:54:50.019Z,64.19
2022-11-24T07:55:49.992Z,63.56
2022-11-24T07:56:49.993Z,63.64
2022-11-24T07:57:49.977Z,61.48
2022-11-24T07:58:53.012Z,62.28
2022-11-24T07:59:50.976Z,63.14
2022-11-24T08:00:49.960Z,62.55
2022-11-24T08:01:50.011Z,63.43
2022-11-24T08:02:49.949Z,61.55
2022-11-24T08:03:49.994Z,64.44
2022-11-24T08:04:49.928Z,63.49
2022-11-24T08:06:16.066Z,62.49
2022-11-24T08:06:51.909Z,63.59
2022-11-24T08:07:49.940Z,62.67
2022-11-24T08:08:49.904Z,63.29
2022-11-24T08:09:49.916Z,62.96
2022-11-24T08:10:49.909Z,62.87
2022-11-24T08:11:49.901Z,61.19
2022-11-24T08:12:49.875Z,62.66
2022-11-24T08:13:49.885Z,63.27
2022-11-24T08:14:49.888Z,63.41
2022-11-24T08:15:49.859Z,63.00
2022-11-24T08:16:49.892Z,62.39
2022-11-24T08:17:49.852Z,61.24
2022-11-24T08:18:49.840Z,61.87
2022-11-24T08:19:49.864Z,61.36
2022-11-24T08:20:49.847Z,61.38
2022-11-24T08:21:49.827Z,61.77
2022-11-24T08:22:49.823Z,63.79
2022-11-24T08:23:49.809Z,62.53
2022-11-24T08:24:49.802Z,62.38
2022-11-24T08:25:52.935Z,61.11
2022-11-24T08:26:50.797Z,62.67
2022-11-24T08:27:49.780Z,63.96
2022-11-24T08:28:49.781Z,61.57
2022-11-24T08:29:49.778Z,62.43
2022-11-24T08:30:49.782Z,60.72
2022-11-24T08:31:49.794Z,61.20
2022-11-24T08:32:49.757Z,61.81
2022-11-24T08:33:49.740Z,61.78
2022-11-24T08:34:49.738Z,61.05
2022-11-24T08:35:49.723Z,62.53
2022-11-24T08:36:49.753Z,61.89
2022-11-24T08:37:49.720Z,61.81
2022-11-24T08:38:49.729Z,61.50
2022-11-24T08:39:49.699Z,60.87
2022-11-24T08:40:49.693Z,61.71
2022-11-24T08:41:49.706Z,62.23
2022-11-24T08:42:49.682Z,61.58
2022-11-24T08:43:49.696Z,62.03
2022-11-24T08:44:49.664Z,61.89
2022-11-24T08:45:49.690Z,63.44
2022-11-24T08:46:49.654Z,65.43
2022-11-24T08:47:49.650Z,62.97
2022-11-24T08:48:49.654Z,64.10
2022-11-24T08:49:49.664Z,61.89
2022-11-24T08:50:49.625Z,62.30
2022-11-24T08:51:49.619Z,61.37
2022-11-24T08:52:49.604Z,61.15
2022-11-24T08:53:49.606Z,61.16
2022-11-24T08:54:49.612Z,62.59
2022-11-24T08:55:49.589Z,62.74
2022-11-24T08:56:49.592Z,61.73
2022-11-24T08:57:50.577Z,62.73
2022-11-24T08:58:49.630Z,61.99
2022-11-24T08:59:49.569Z,61.99
2022-11-24T09:00:49.557Z,60.60
2022-11-24T09:01:49.664Z,62.28
2022-11-24T09:02:49.547Z,61.30
2022-11-24T09:03:51.037Z,61.59
2022-11-24T09:04:50.543Z,60.96
2022-11-24T09:05:52.191Z,63.31
2022-11-24T09:06:50.520Z,61.46
2022-11-24T09:07:49.585Z,62.71
2022-11-24T09:08:49.504Z,62.40
2022-11-24T09:09:49.509Z,62.58
2022-11-24T09:10:49.508Z,60.89
2022-11-24T09:11:49.481Z,63.81
2022-11-24T09:12:49.474Z,62.29
2022-11-24T09:13:49.495Z,60.85
2022-11-24T09:14:49.469Z,61.73
2022-11-24T09:15:49.452Z,64.02
2022-11-24T09:16:49.480Z,62.22
2022-11-24T09:17:49.445Z,60.52
2022-11-24T09:18:49.466Z,62.32
2022-11-24T09:19:49.440Z,62.49
2022-11-24T09:20:49.437Z,62.43
2022-11-24T09:21:49.424Z,62.84
2022-11-24T09:22:49.412Z,61.79
2022-11-24T09:23:49.421Z,63.06
2022-11-24T09:24:49.411Z,63.00
2022-11-24T09:25:49.397Z,62.19
2022-11-24T09:26:49.388Z,62.73
2022-11-24T09:27:49.392Z,61.77
2022-11-24T09:28:49.380Z,61.74
2022-11-24T09:29:49.372Z,63.44
2022-11-24T09:30:49.416Z,63.38
2022-11-24T09:31:49.349Z,60.20
2022-11-24T09:32:49.348Z,61.96
2022-11-24T09:33:49.335Z,62.55
2022-11-24T09:34:49.353Z,60.51
2022-11-24T09:35:50.326Z,62.37
2022-11-24T09:36:49.307Z,60.65
2022-11-24T09:37:49.305Z,61.61
2022-11-24T09:38:49.303Z,61.87
2022-11-24T09:39:49.300Z,61.93
2022-11-24T09:40:51.614Z,60.86
2022-11-24T09:41:49.287Z,60.02
2022-11-24T09:42:53.374Z,60.02
2022-11-24T09:43:50.273Z,62.82
2022-11-24T09:44:49.261Z,59.96
2022-11-24T09:46:05.151Z,63.21
2022-11-24T09:46:51.298Z,62.50
2022-11-24T09:47:49.234Z,60.81
2022-11-24T09:48:49.233Z,61.17
2022-11-24T09:49:51.493Z,59.92
2022-11-24T09:50:50.237Z,63.37
2022-11-24T09:51:49.224Z,62.50
2022-11-24T09:52:49.216Z,62.62
2022-11-24T09:53:49.205Z,62.68
2022-11-24T09:54:49.197Z,61.87
2022-11-24T09:55:49.190Z,63.60
2022-11-24T09:56:49.182Z,62.33
2022-11-24T09:57:49.197Z,62.53
2022-11-24T09:58:49.172Z,62.19
2022-11-24T09:59:49.161Z,60.58
2022-11-24T10:00:49.153Z,61.67
2022-11-24T10:01:49.175Z,60.06
2022-11-24T10:02:49.136Z,59.95
2022-11-24T10:03:49.141Z,61.01
2022-11-24T10:04:49.172Z,60.62
2022-11-24T10:05:49.126Z,62.27
2022-11-24T10:06:49.150Z,60.55
2022-11-24T10:07:49.111Z,60.69
2022-11-24T10:08:49.094Z,59.96
2022-11-24T10:09:49.095Z,61.97
2022-11-24T10:10:49.073Z,61.92
2022-11-24T10:11:49.066Z,60.97
2022-11-24T10:12:49.057Z,61.63
2022-11-24T10:13:49.070Z,62.03
2022-11-24T10:14:49.063Z,60.66
2022-11-24T10:15:49.086Z,60.05
2022-11-24T10:16:50.799Z,62.50
2022-11-24T10:17:49.041Z,59.89
2022-11-24T10:18:49.018Z,61.40
2022-11-24T10:19:49.011Z,62.70
2022-11-24T10:20:49.009Z,61.55
2022-11-24T10:21:48.998Z,62.13
2022-11-24T10:22:48.985Z,62.01
2022-11-24T10:23:48.966Z,61.61
2022-11-24T10:24:48.975Z,60.55
2022-11-24T10:25:48.990Z,60.10
2022-11-24T10:26:48.946Z,60.49
2022-11-24T10:27:48.953Z,60.15
2022-11-24T10:28:48.949Z,60.31
2022-11-24T10:29:48.933Z,61.04
2022-11-24T10:30:48.976Z,59.44
2022-11-24T10:31:48.923Z,60.23
2022-11-24T10:32:48.917Z,60.75
2022-11-24T10:33:48.910Z,58.39
2022-11-24T10:34:48.902Z,59.72
2022-11-24T10:35:48.890Z,61.42
2022-11-24T10:36:48.905Z,60.70
2022-11-24T10:37:48.885Z,62.43
2022-11-24T10:38:48.870Z,60.59
2022-11-24T10:39:48.855Z,60.72
2022-11-24T10:40:57.089Z,59.42
2022-11-24T10:41:50.849Z,59.26
2022-11-24T10:42:48.842Z,61.14
2022-11-24T10:43:48.850Z,61.87
2022-11-24T10:44:48.817Z,61.02
2022-11-24T10:45:49.843Z,61.91
2022-11-24T10:46:48.914Z,60.16
2022-11-24T10:47:48.816Z,59.90
2022-11-24T10:48:48.797Z,59.26
2022-11-24T10:49:48.785Z,58.47
2022-11-24T10:50:48.778Z,59.93
2022-11-24T10:51:48.857Z,58.39
2022-11-24T10:52:48.784Z,56.26
2022-11-24T10:53:48.749Z,57.79
2022-11-24T10:54:48.749Z,58.40
2022-11-24T10:55:48.747Z,58.27
2022-11-24T10:56:48.741Z,58.50
2022-11-24T10:57:48.754Z,58.63
2022-11-24T10:58:48.737Z,60.21
2022-11-24T10:59:48.726Z,58.09
2022-11-24T11:00:48.712Z,60.11
2022-11-24T11:01:48.883Z,58.75
2022-11-24T11:02:48.787Z,59.48
2022-11-24T11:03:48.705Z,58.37
2022-11-24T11:04:48.688Z,58.77
2022-11-24T11:05:48.674Z,59.61
2022-11-24T11:06:48.670Z,60.88
2022-11-24T11:07:48.713Z,61.55
2022-11-24T11:08:48.708Z,58.42
2022-11-24T11:09:48.657Z,58.85
2022-11-24T11:10:48.655Z,59.50
2022-11-24T11:11:48.651Z,59.28
2022-11-24T11:12:48.648Z,60.49
2022-11-24T11:13:48.646Z,61.96
2022-11-24T11:14:48.626Z,60.97
2022-11-24T11:15:48.627Z,60.78
2022-11-24T11:16:48.622Z,60.02
2022-11-24T11:17:48.605Z,60.37
2022-11-24T11:18:48.598Z,60.54
2022-11-24T11:19:50.016Z,60.06
2022-11-24T11:20:49.588Z,60.04
2022-11-24T11:21:48.565Z,59.61
2022-11-24T11:22:48.565Z,58.87
2022-11-24T11:23:48.573Z,60.52
2022-11-24T11:24:48.573Z,60.74
2022-11-24T11:25:48.538Z,59.27
2022-11-24T11:26:48.537Z,60.12
2022-11-24T11:27:48.550Z,57.92
2022-11-24T11:28:48.539Z,58.17
2022-11-24T11:34:09.537Z,58.44
2022-11-24T11:34:50.515Z,59.20
2022-11-24T11:35:48.485Z,59.90
2022-11-24T11:36:48.472Z,59.64
2022-11-24T11:37:48.460Z,61.60
2022-11-24T11:38:48.470Z,61.22
2022-11-24T11:39:49.215Z,59.27
2022-11-24T11:40:49.479Z,61.49
2022-11-24T11:41:48.438Z,62.09
2022-11-24T11:43:03.920Z,60.15
2022-11-24T11:43:50.479Z,62.30
2022-11-24T11:44:48.414Z,57.70
2022-11-24T11:45:48.438Z,61.01
2022-11-24T11:46:48.457Z,59.36
2022-11-24T11:47:48.407Z,60.63
2022-11-24T11:48:48.387Z,61.19
2022-11-24T11:49:48.381Z,60.87
2022-11-24T11:51:21.111Z,61.32
2022-11-24T11:51:50.364Z,61.72
2022-11-24T11:52:48.363Z,60.99
2022-11-24T11:53:48.349Z,60.98
2022-11-24T11:54:48.340Z,60.40
2022-11-24T11:55:50.130Z,59.48
2022-11-24T11:56:49.367Z,59.23
2022-11-24T11:57:48.328Z,59.77
2022-11-24T11:58:48.304Z,61.59
2022-11-24T11:59:48.308Z,60.03
2022-11-24T12:00:48.291Z,59.98
2022-11-24T12:01:48.280Z,59.56
2022-11-24T12:02:53.058Z,58.85
2022-11-24T12:03:50.412Z,58.62
2022-11-24T12:04:48.269Z,59.30
2022-11-24T12:05:48.267Z,58.91
2022-11-24T12:06:48.257Z,61.92
2022-11-24T12:07:48.321Z,60.56
2022-11-24T12:09:18.781Z,61.18
2022-11-24T12:09:50.235Z,60.64
2022-11-24T12:10:48.227Z,62.19
2022-11-24T12:11:48.226Z,61.82
2022-11-24T12:12:48.240Z,60.96
2022-11-24T12:13:48.212Z,59.89
2022-11-24T12:14:48.195Z,61.94
2022-11-24T12:15:48.244Z,60.94
2022-11-24T12:16:48.188Z,61.83
2022-11-24T12:17:48.175Z,61.05
2022-11-24T12:18:57.557Z,62.55
2022-11-24T12:19:50.203Z,61.39
2022-11-24T12:20:48.162Z,60.61
2022-11-24T12:21:48.157Z,60.50
2022-11-24T12:22:48.149Z,62.32
2022-11-24T12:23:48.132Z,60.18
2022-11-24T12:24:48.197Z,61.64
2022-11-24T12:25:48.117Z,62.66
2022-11-24T12:26:48.121Z,61.70
2022-11-24T12:27:48.106Z,61.68
2022-11-24T12:28:48.110Z,61.13
2022-11-24T12:29:48.087Z,61.38
2022-11-24T12:30:48.090Z,61.60
2022-11-24T12:31:48.148Z,59.94
2022-11-24T12:32:48.075Z,60.95
2022-11-24T12:33:52.297Z,61.53
2022-11-24T12:34:49.087Z,60.86
2022-11-24T12:35:48.075Z,60.10
2022-11-24T12:36:48.038Z,62.24
2022-11-24T12:37:48.031Z,62.13
2022-11-24T12:38:48.027Z,63.18
2022-11-24T12:39:48.031Z,61.51
2022-11-24T12:40:48.025Z,60.42
2022-11-24T12:41:48.004Z,61.61
2022-11-24T12:42:48.000Z,63.68
2022-11-24T12:43:47.994Z,62.20
2022-11-24T12:44:47.987Z,61.25
2022-11-24T12:45:47.983Z,59.60
2022-11-24T12:46:48.011Z,62.07
2022-11-24T12:47:47.963Z,62.73
2022-11-24T12:48:47.943Z,62.69
2022-11-24T12:49:48.951Z,62.94
2022-11-24T12:50:47.958Z,61.42
2022-11-24T12:51:47.939Z,63.43
2022-11-24T12:52:47.926Z,62.72
2022-11-24T12:53:47.919Z,62.36
2022-11-24T12:54:47.916Z,61.32
2022-11-24T12:55:47.911Z,63.62
2022-11-24T12:56:47.897Z,64.30